sensor_id;sensor_type;location;lat;lon;timestamp;pressure;altitude;pressure_sealevel;temperature
69420;BMP280;71621;52.030;113.516;2023-07-24T00:02:54;93037.19;;;28.20
69420;BMP280;71621;52.030;113.516;2023-07-24T00:05:59;93032.16;;;28.90
69420;BMP280;71621;52.030;113.516;2023-07-24T00:09:03;93029.31;;;29.46
69420;BMP280;71621;52.030;113.516;2023-07-24T00:12:06;93021.97;;;29.63
69420;BMP280;71621;52.030;113.516;2023-07-24T00:15:10;93018.50;;;28.33
69420;BMP280;71621;52.030;113.516;2023-07-24T00:18:14;93016.91;;;28.03
69420;BMP280;71621;52.030;113.516;2023-07-24T00:21:17;93020.53;;;27.65
69420;BMP280;71621;52.030;113.516;2023-07-24T00:24:21;93014.09;;;26.84
69420;BMP280;71621;52.030;113.516;2023-07-24T00:27:25;93012.88;;;26.03
69420;BMP280;71621;52.030;113.516;2023-07-24T00:30:28;93016.97;;;25.77
69420;BMP280;71621;52.030;113.516;2023-07-24T00:33:32;93021.31;;;25.72
69420;BMP280;71621;52.030;113.516;2023-07-24T00:36:35;93015.59;;;25.49
69420;BMP280;71621;52.030;113.516;2023-07-24T00:39:40;93022.41;;;26.04
69420;BMP280;71621;52.030;113.516;2023-07-24T00:42:48;93004.81;;;25.87
69420;BMP280;71621;52.030;113.516;2023-07-24T00:45:52;93004.22;;;25.29
69420;BMP280;71621;52.030;113.516;2023-07-24T00:48:57;93001.91;;;24.92
69420;BMP280;71621;52.030;113.516;2023-07-24T00:52:01;92990.84;;;25.23
69420;BMP280;71621;52.030;113.516;2023-07-24T00:55:05;92984.56;;;25.82
69420;BMP280;71621;52.030;113.516;2023-07-24T00:58:11;92999.66;;;25.81
69420;BMP280;71621;52.030;113.516;2023-07-24T01:01:16;92991.34;;;25.83
69420;BMP280;71621;52.030;113.516;2023-07-24T01:04:21;92979.13;;;26.07
69420;BMP280;71621;52.030;113.516;2023-07-24T01:07:26;92965.91;;;26.11
69420;BMP280;71621;52.030;113.516;2023-07-24T01:10:30;92968.84;;;26.07
69420;BMP280;71621;52.030;113.516;2023-07-24T01:13:36;92975.19;;;26.04
69420;BMP280;71621;52.030;113.516;2023-07-24T01:16:45;92971.03;;;26.05
69420;BMP280;71621;52.030;113.516;2023-07-24T01:19:55;92972.81;;;26.23
69420;BMP280;71621;52.030;113.516;2023-07-24T01:26:23;92968.50;;;25.61
69420;BMP280;71621;52.030;113.516;2023-07-24T01:29:28;92948.31;;;25.54
69420;BMP280;71621;52.030;113.516;2023-07-24T01:32:32;92959.25;;;25.54
69420;BMP280;71621;52.030;113.516;2023-07-24T01:35:36;92950.53;;;25.64
69420;BMP280;71621;52.030;113.516;2023-07-24T01:38:41;92959.78;;;26.11
69420;BMP280;71621;52.030;113.516;2023-07-24T01:41:45;92955.63;;;26.37
69420;BMP280;71621;52.030;113.516;2023-07-24T01:44:53;92950.91;;;26.36
69420;BMP280;71621;52.030;113.516;2023-07-24T01:47:57;92944.34;;;26.18
69420;BMP280;71621;52.030;113.516;2023-07-24T01:51:01;92942.19;;;25.93
69420;BMP280;71621;52.030;113.516;2023-07-24T01:54:05;92948.16;;;25.98
69420;BMP280;71621;52.030;113.516;2023-07-24T01:57:09;92940.47;;;26.00
69420;BMP280;71621;52.030;113.516;2023-07-24T02:00:12;92938.22;;;25.78
69420;BMP280;71621;52.030;113.516;2023-07-24T02:03:16;92939.19;;;25.45
69420;BMP280;71621;52.030;113.516;2023-07-24T02:06:20;92936.22;;;25.21
69420;BMP280;71621;52.030;113.516;2023-07-24T02:09:24;92940.59;;;25.44
69420;BMP280;71621;52.030;113.516;2023-07-24T02:12:27;92927.31;;;25.63
69420;BMP280;71621;52.030;113.516;2023-07-24T02:15:31;92924.00;;;25.48
69420;BMP280;71621;52.030;113.516;2023-07-24T02:18:34;92929.50;;;25.33
69420;BMP280;71621;52.030;113.516;2023-07-24T02:21:38;92927.94;;;25.51
69420;BMP280;71621;52.030;113.516;2023-07-24T02:24:43;92925.75;;;25.53
69420;BMP280;71621;52.030;113.516;2023-07-24T02:27:47;92921.66;;;25.67
69420;BMP280;71621;52.030;113.516;2023-07-24T02:30:50;92924.53;;;25.78
69420;BMP280;71621;52.030;113.516;2023-07-24T02:33:55;92921.66;;;25.67
69420;BMP280;71621;52.030;113.516;2023-07-24T02:36:58;92912.44;;;25.60
69420;BMP280;71621;52.030;113.516;2023-07-24T02:40:02;92906.50;;;25.55
69420;BMP280;71621;52.030;113.516;2023-07-24T02:43:06;92901.88;;;25.79
69420;BMP280;71621;52.030;113.516;2023-07-24T02:46:09;92901.56;;;25.85
69420;BMP280;71621;52.030;113.516;2023-07-24T02:49:13;92897.72;;;25.80
69420;BMP280;71621;52.030;113.516;2023-07-24T02:52:17;92894.06;;;25.58
69420;BMP280;71621;52.030;113.516;2023-07-24T02:55:20;92889.59;;;25.38
69420;BMP280;71621;52.030;113.516;2023-07-24T02:58:24;92876.16;;;25.47
69420;BMP280;71621;52.030;113.516;2023-07-24T03:01:27;92885.19;;;25.58
69420;BMP280;71621;52.030;113.516;2023-07-24T03:04:32;92872.31;;;25.42
69420;BMP280;71621;52.030;113.516;2023-07-24T03:07:35;92872.63;;;25.36
69420;BMP280;71621;52.030;113.516;2023-07-24T03:10:42;92869.59;;;25.42
69420;BMP280;71621;52.030;113.516;2023-07-24T03:13:45;92869.00;;;25.26
69420;BMP280;71621;52.030;113.516;2023-07-24T03:16:49;92855.53;;;25.08
69420;BMP280;71621;52.030;113.516;2023-07-24T03:19:54;92865.78;;;25.22
69420;BMP280;71621;52.030;113.516;2023-07-24T03:22:58;92853.63;;;25.19
69420;BMP280;71621;52.030;113.516;2023-07-24T03:26:02;92860.38;;;25.35
69420;BMP280;71621;52.030;113.516;2023-07-24T03:29:05;92854.88;;;25.35
69420;BMP280;71621;52.030;113.516;2023-07-24T03:32:09;92852.97;;;25.46
69420;BMP280;71621;52.030;113.516;2023-07-24T03:35:12;92850.31;;;25.44
69420;BMP280;71621;52.030;113.516;2023-07-24T03:38:16;92842.31;;;25.40
69420;BMP280;71621;52.030;113.516;2023-07-24T03:41:20;92844.75;;;25.46
69420;BMP280;71621;52.030;113.516;2023-07-24T03:44:23;92837.00;;;25.50
69420;BMP280;71621;52.030;113.516;2023-07-24T03:47:28;92837.13;;;25.73
69420;BMP280;71621;52.030;113.516;2023-07-24T03:50:31;92833.84;;;25.71
69420;BMP280;71621;52.030;113.516;2023-07-24T03:53:35;92833.88;;;25.84
69420;BMP280;71621;52.030;113.516;2023-07-24T03:56:38;92822.25;;;25.96
69420;BMP280;71621;52.030;113.516;2023-07-24T03:59:42;92817.44;;;25.96
69420;BMP280;71621;52.030;113.516;2023-07-24T04:02:47;92820.06;;;25.86
69420;BMP280;71621;52.030;113.516;2023-07-24T04:05:51;92818.84;;;25.83
69420;BMP280;71621;52.030;113.516;2023-07-24T04:08:54;92806.69;;;25.92
69420;BMP280;71621;52.030;113.516;2023-07-24T04:11:58;92811.34;;;26.08
69420;BMP280;71621;52.030;113.516;2023-07-24T04:15:01;92802.75;;;26.14
69420;BMP280;71621;52.030;113.516;2023-07-24T04:18:05;92798.56;;;26.15
69420;BMP280;71621;52.030;113.516;2023-07-24T04:21:09;92793.09;;;26.15
69420;BMP280;71621;52.030;113.516;2023-07-24T04:24:12;92797.81;;;26.30
69420;BMP280;71621;52.030;113.516;2023-07-24T04:27:16;92796.25;;;26.45
69420;BMP280;71621;52.030;113.516;2023-07-24T04:30:20;92789.44;;;26.57
69420;BMP280;71621;52.030;113.516;2023-07-24T04:33:23;92785.50;;;26.77
69420;BMP280;71621;52.030;113.516;2023-07-24T04:36:30;92778.19;;;26.74
69420;BMP280;71621;52.030;113.516;2023-07-24T04:39:34;92783.66;;;26.74
69420;BMP280;71621;52.030;113.516;2023-07-24T04:42:38;92775.72;;;26.57
69420;BMP280;71621;52.030;113.516;2023-07-24T04:45:41;92776.00;;;26.40
69420;BMP280;71621;52.030;113.516;2023-07-24T04:48:45;92777.31;;;26.29
69420;BMP280;71621;52.030;113.516;2023-07-24T04:51:48;92773.69;;;26.32
69420;BMP280;71621;52.030;113.516;2023-07-24T04:54:52;92771.91;;;26.52
69420;BMP280;71621;52.030;113.516;2023-07-24T04:57:58;92770.78;;;26.59
69420;BMP280;71621;52.030;113.516;2023-07-24T05:01:05;92768.25;;;26.55
69420;BMP280;71621;52.030;113.516;2023-07-24T05:04:09;92764.63;;;26.59
69420;BMP280;71621;52.030;113.516;2023-07-24T05:07:14;92764.63;;;26.59
69420;BMP280;71621;52.030;113.516;2023-07-24T05:10:17;92766.41;;;26.52
69420;BMP280;71621;52.030;113.516;2023-07-24T05:13:21;92767.78;;;26.40
69420;BMP280;71621;52.030;113.516;2023-07-24T05:16:25;92760.31;;;26.39
69420;BMP280;71621;52.030;113.516;2023-07-24T05:19:28;92757.81;;;26.35
69420;BMP280;71621;52.030;113.516;2023-07-24T05:22:32;92760.13;;;26.17
69420;BMP280;71621;52.030;113.516;2023-07-24T05:25:36;92760.25;;;26.03
69420;BMP280;71621;52.030;113.516;2023-07-24T05:28:39;92756.00;;;25.93
69420;BMP280;71621;52.030;113.516;2023-07-24T05:31:43;92754.28;;;25.88
69420;BMP280;71621;52.030;113.516;2023-07-24T05:34:47;92753.59;;;25.87
69420;BMP280;71621;52.030;113.516;2023-07-24T05:37:51;92753.72;;;25.85
69420;BMP280;71621;52.030;113.516;2023-07-24T05:40:56;92753.47;;;25.89
69420;BMP280;71621;52.030;113.516;2023-07-24T05:44:00;92749.66;;;25.84
69420;BMP280;71621;52.030;113.516;2023-07-24T05:47:04;92743.09;;;25.79
69420;BMP280;71621;52.030;113.516;2023-07-24T05:50:08;92736.97;;;25.79
69420;BMP280;71621;52.030;113.516;2023-07-24T05:53:11;92731.25;;;25.83
69420;BMP280;71621;52.030;113.516;2023-07-24T05:56:15;92724.81;;;25.88
69420;BMP280;71621;52.030;113.516;2023-07-24T05:59:18;92728.84;;;25.89
69420;BMP280;71621;52.030;113.516;2023-07-24T06:02:22;92715.06;;;25.79
69420;BMP280;71621;52.030;113.516;2023-07-24T06:05:26;92718.88;;;25.84
69420;BMP280;71621;52.030;113.516;2023-07-24T06:08:29;92720.19;;;25.85
69420;BMP280;71621;52.030;113.516;2023-07-24T06:11:33;92718.69;;;25.88
69420;BMP280;71621;52.030;113.516;2023-07-24T06:14:36;92704.63;;;25.94
69420;BMP280;71621;52.030;113.516;2023-07-24T06:17:40;92706.69;;;26.06
69420;BMP280;71621;52.030;113.516;2023-07-24T06:20:44;92708.31;;;26.13
69420;BMP280;71621;52.030;113.516;2023-07-24T06:23:47;92710.25;;;26.28
69420;BMP280;71621;52.030;113.516;2023-07-24T06:26:51;92705.63;;;26.37
69420;BMP280;71621;52.030;113.516;2023-07-24T06:29:55;92701.78;;;26.44
69420;BMP280;71621;52.030;113.516;2023-07-24T06:33:15;92702.72;;;26.51
69420;BMP280;71621;52.030;113.516;2023-07-24T06:36:19;92696.22;;;26.57
69420;BMP280;71621;52.030;113.516;2023-07-24T06:39:22;92690.41;;;26.63
69420;BMP280;71621;52.030;113.516;2023-07-24T06:42:26;92696.41;;;26.89
69420;BMP280;71621;52.030;113.516;2023-07-24T06:45:30;92694.78;;;27.04
69420;BMP280;71621;52.030;113.516;2023-07-24T06:48:34;92701.84;;;27.01
69420;BMP280;71621;52.030;113.516;2023-07-24T06:51:37;92696.19;;;26.93
69420;BMP280;71621;52.030;113.516;2023-07-24T06:54:44;92689.44;;;27.02
69420;BMP280;71621;52.030;113.516;2023-07-24T06:57:47;92690.13;;;27.14
69420;BMP280;71621;52.030;113.516;2023-07-24T07:00:51;92691.28;;;27.17
69420;BMP280;71621;52.030;113.516;2023-07-24T07:03:54;92680.00;;;26.99
69420;BMP280;71621;52.030;113.516;2023-07-24T07:06:58;92691.88;;;26.96
69420;BMP280;71621;52.030;113.516;2023-07-24T07:10:02;92689.38;;;26.92
69420;BMP280;71621;52.030;113.516;2023-07-24T07:13:06;92685.03;;;26.84
69420;BMP280;71621;52.030;113.516;2023-07-24T07:16:09;92675.38;;;26.85
69420;BMP280;71621;52.030;113.516;2023-07-24T07:19:13;92674.25;;;26.93
69420;BMP280;71621;52.030;113.516;2023-07-24T07:22:17;92677.66;;;27.04
69420;BMP280;71621;52.030;113.516;2023-07-24T07:25:21;92661.53;;;27.32
69420;BMP280;71621;52.030;113.516;2023-07-24T07:28:24;92671.00;;;27.45
69420;BMP280;71621;52.030;113.516;2023-07-24T07:31:27;92668.50;;;27.52
69420;BMP280;71621;52.030;113.516;2023-07-24T07:34:31;92659.63;;;27.51
69420;BMP280;71621;52.030;113.516;2023-07-24T07:37:34;92667.75;;;27.43
69420;BMP280;71621;52.030;113.516;2023-07-24T07:40:39;92662.47;;;27.39
69420;BMP280;71621;52.030;113.516;2023-07-24T07:43:42;92656.19;;;27.30
69420;BMP280;71621;52.030;113.516;2023-07-24T07:46:46;92659.31;;;27.24
69420;BMP280;71621;52.030;113.516;2023-07-24T07:49:49;92653.41;;;27.19
69420;BMP280;71621;52.030;113.516;2023-07-24T07:52:53;92648.34;;;27.24
69420;BMP280;71621;52.030;113.516;2023-07-24T07:55:57;92645.75;;;27.32
69420;BMP280;71621;52.030;113.516;2023-07-24T07:59:02;92644.88;;;27.46
69420;BMP280;71621;52.030;113.516;2023-07-24T08:02:06;92640.06;;;27.68
69420;BMP280;71621;52.030;113.516;2023-07-24T08:05:11;92643.97;;;27.92
69420;BMP280;71621;52.030;113.516;2023-07-24T08:08:22;92637.78;;;28.13
69420;BMP280;71621;52.030;113.516;2023-07-24T08:11:26;92642.50;;;28.25
69420;BMP280;71621;52.030;113.516;2023-07-24T08:14:30;92638.56;;;28.33
69420;BMP280;71621;52.030;113.516;2023-07-24T08:17:34;92626.25;;;28.32
69420;BMP280;71621;52.030;113.516;2023-07-24T08:20:37;92627.94;;;28.37
69420;BMP280;71621;52.030;113.516;2023-07-24T08:23:44;92635.78;;;28.43
69420;BMP280;71621;52.030;113.516;2023-07-24T08:26:48;92642.06;;;28.42
69420;BMP280;71621;52.030;113.516;2023-07-24T08:29:52;92643.88;;;28.56
69420;BMP280;71621;52.030;113.516;2023-07-24T08:32:56;92634.53;;;28.62
69420;BMP280;71621;52.030;113.516;2023-07-24T08:36:05;92639.78;;;28.66
69420;BMP280;71621;52.030;113.516;2023-07-24T08:39:09;92645.94;;;28.56
69420;BMP280;71621;52.030;113.516;2023-07-24T08:42:13;92648.34;;;28.51
69420;BMP280;71621;52.030;113.516;2023-07-24T08:45:17;92645.19;;;28.57
69420;BMP280;71621;52.030;113.516;2023-07-24T08:48:22;92647.97;;;28.47
69420;BMP280;71621;52.030;113.516;2023-07-24T08:51:27;92650.94;;;28.53
69420;BMP280;71621;52.030;113.516;2023-07-24T08:54:32;92644.78;;;28.63
69420;BMP280;71621;52.030;113.516;2023-07-24T08:57:38;92636.28;;;28.57
69420;BMP280;71621;52.030;113.516;2023-07-24T09:00:42;92644.94;;;28.51
69420;BMP280;71621;52.030;113.516;2023-07-24T09:03:45;92636.38;;;28.55
69420;BMP280;71621;52.030;113.516;2023-07-24T09:06:53;92641.13;;;28.45
69420;BMP280;71621;52.030;113.516;2023-07-24T09:09:56;92637.75;;;28.45
69420;BMP280;71621;52.030;113.516;2023-07-24T09:13:00;92637.16;;;28.64
69420;BMP280;71621;52.030;113.516;2023-07-24T09:16:06;92635.97;;;28.71
69420;BMP280;71621;52.030;113.516;2023-07-24T09:19:17;92629.13;;;28.81
69420;BMP280;71621;52.030;113.516;2023-07-24T09:22:28;92640.41;;;28.66
69420;BMP280;71621;52.030;113.516;2023-07-24T09:25:32;92646.00;;;28.45
69420;BMP280;71621;52.030;113.516;2023-07-24T09:28:37;92648.09;;;28.34
69420;BMP280;71621;52.030;113.516;2023-07-24T09:31:41;92645.75;;;28.28
69420;BMP280;71621;52.030;113.516;2023-07-24T09:34:44;92643.00;;;28.28
69420;BMP280;71621;52.030;113.516;2023-07-24T09:37:48;92641.97;;;28.23
69420;BMP280;71621;52.030;113.516;2023-07-24T09:40:53;92651.53;;;28.13
69420;BMP280;71621;52.030;113.516;2023-07-24T09:44:00;92648.00;;;28.15
69420;BMP280;71621;52.030;113.516;2023-07-24T09:47:03;92644.22;;;28.10
69420;BMP280;71621;52.030;113.516;2023-07-24T09:50:27;92651.16;;;27.98
69420;BMP280;71621;52.030;113.516;2023-07-24T09:53:37;92649.72;;;27.99
69420;BMP280;71621;52.030;113.516;2023-07-24T09:56:42;92653.09;;;27.99
69420;BMP280;71621;52.030;113.516;2023-07-24T09:59:57;92653.41;;;27.95
69420;BMP280;71621;52.030;113.516;2023-07-24T10:03:01;92646.97;;;27.88
69420;BMP280;71621;52.030;113.516;2023-07-24T10:06:05;92657.69;;;27.82
69420;BMP280;71621;52.030;113.516;2023-07-24T10:09:10;92651.66;;;27.69
69420;BMP280;71621;52.030;113.516;2023-07-24T10:12:14;92662.25;;;27.53
69420;BMP280;71621;52.030;113.516;2023-07-24T10:15:20;92659.91;;;27.58
69420;BMP280;71621;52.030;113.516;2023-07-24T10:18:28;92666.72;;;27.59
69420;BMP280;71621;52.030;113.516;2023-07-24T10:21:33;92669.94;;;27.51
69420;BMP280;71621;52.030;113.516;2023-07-24T10:24:36;92676.09;;;27.51
69420;BMP280;71621;52.030;113.516;2023-07-24T10:27:46;92676.75;;;27.52
69420;BMP280;71621;52.030;113.516;2023-07-24T10:30:55;92678.19;;;27.51
69420;BMP280;71621;52.030;113.516;2023-07-24T10:34:06;92679.91;;;27.57
69420;BMP280;71621;52.030;113.516;2023-07-24T10:37:10;92672.31;;;27.46
69420;BMP280;71621;52.030;113.516;2023-07-24T10:40:21;92685.25;;;27.48
69420;BMP280;71621;52.030;113.516;2023-07-24T10:43:24;92675.69;;;27.36
69420;BMP280;71621;52.030;113.516;2023-07-24T10:46:39;92684.44;;;27.39
69420;BMP280;71621;52.030;113.516;2023-07-24T10:49:49;92680.38;;;27.38
69420;BMP280;71621;52.030;113.516;2023-07-24T10:52:53;92682.59;;;27.25
69420;BMP280;71621;52.030;113.516;2023-07-24T10:55:56;92679.16;;;27.14
69420;BMP280;71621;52.030;113.516;2023-07-24T10:59:03;92683.81;;;27.04
69420;BMP280;71621;52.030;113.516;2023-07-24T11:02:07;92683.91;;;26.92
69420;BMP280;71621;52.030;113.516;2023-07-24T11:05:14;92685.16;;;26.82
69420;BMP280;71621;52.030;113.516;2023-07-24T11:08:20;92682.88;;;26.74
69420;BMP280;71621;52.030;113.516;2023-07-24T11:11:32;92685.31;;;26.68
69420;BMP280;71621;52.030;113.516;2023-07-24T11:14:52;92679.13;;;26.56
69420;BMP280;71621;52.030;113.516;2023-07-24T11:17:59;92686.88;;;26.41
69420;BMP280;71621;52.030;113.516;2023-07-24T11:21:03;92693.59;;;26.32
69420;BMP280;71621;52.030;113.516;2023-07-24T11:24:08;92695.47;;;26.23
69420;BMP280;71621;52.030;113.516;2023-07-24T11:27:15;92689.59;;;26.18
69420;BMP280;71621;52.030;113.516;2023-07-24T11:30:20;92691.88;;;26.13
69420;BMP280;71621;52.030;113.516;2023-07-24T11:33:24;92689.06;;;26.03
69420;BMP280;71621;52.030;113.516;2023-07-24T11:36:29;92690.16;;;25.95
69420;BMP280;71621;52.030;113.516;2023-07-24T11:39:33;92684.59;;;25.85
69420;BMP280;71621;52.030;113.516;2023-07-24T11:42:38;92687.34;;;25.85
69420;BMP280;71621;52.030;113.516;2023-07-24T11:45:43;92684.72;;;25.83
69420;BMP280;71621;52.030;113.516;2023-07-24T11:48:48;92684.97;;;25.79
69420;BMP280;71621;52.030;113.516;2023-07-24T11:51:52;92691.94;;;25.75
69420;BMP280;71621;52.030;113.516;2023-07-24T11:54:56;92669.00;;;25.58
69420;BMP280;71621;52.030;113.516;2023-07-24T11:58:04;92678.94;;;25.63
69420;BMP280;71621;52.030;113.516;2023-07-24T12:01:07;92683.34;;;25.58
69420;BMP280;71621;52.030;113.516;2023-07-24T12:04:11;92681.56;;;25.53
69420;BMP280;71621;52.030;113.516;2023-07-24T12:07:15;92676.75;;;25.53
69420;BMP280;71621;52.030;113.516;2023-07-24T12:10:26;92681.03;;;25.50
69420;BMP280;71621;52.030;113.516;2023-07-24T12:13:32;92684.09;;;25.44
69420;BMP280;71621;52.030;113.516;2023-07-24T12:16:36;92682.31;;;25.39
69420;BMP280;71621;52.030;113.516;2023-07-24T12:19:40;92690.66;;;25.37
69420;BMP280;71621;52.030;113.516;2023-07-24T12:22:43;92684.84;;;25.30
69420;BMP280;71621;52.030;113.516;2023-07-24T12:25:47;92690.41;;;25.15
69420;BMP280;71621;52.030;113.516;2023-07-24T12:28:51;92699.66;;;24.95
69420;BMP280;71621;52.030;113.516;2023-07-24T12:31:54;92704.25;;;24.86
69420;BMP280;71621;52.030;113.516;2023-07-24T12:34:58;92706.72;;;24.77
69420;BMP280;71621;52.030;113.516;2023-07-24T12:38:02;92715.44;;;24.67
69420;BMP280;71621;52.030;113.516;2023-07-24T12:41:05;92713.97;;;24.56
69420;BMP280;71621;52.030;113.516;2023-07-24T12:44:09;92716.06;;;24.55
69420;BMP280;71621;52.030;113.516;2023-07-24T12:47:12;92707.53;;;24.61
69420;BMP280;71621;52.030;113.516;2023-07-24T12:50:16;92717.75;;;24.48
69420;BMP280;71621;52.030;113.516;2023-07-24T12:53:20;92716.06;;;24.40
69420;BMP280;71621;52.030;113.516;2023-07-24T12:56:31;92717.06;;;24.20
69420;BMP280;71621;52.030;113.516;2023-07-24T12:59:35;92732.03;;;24.21
69420;BMP280;71621;52.030;113.516;2023-07-24T13:02:38;92737.66;;;24.17
69420;BMP280;71621;52.030;113.516;2023-07-24T13:05:42;92736.56;;;24.12
69420;BMP280;71621;52.030;113.516;2023-07-24T13:08:46;92734.97;;;24.02
69420;BMP280;71621;52.030;113.516;2023-07-24T13:11:49;92730.94;;;23.87
69420;BMP280;71621;52.030;113.516;2023-07-24T13:14:54;92739.28;;;23.97
69420;BMP280;71621;52.030;113.516;2023-07-24T13:17:58;92746.84;;;23.82
69420;BMP280;71621;52.030;113.516;2023-07-24T13:21:19;92756.69;;;23.90
69420;BMP280;71621;52.030;113.516;2023-07-24T13:24:22;92760.66;;;23.78
69420;BMP280;71621;52.030;113.516;2023-07-24T13:27:26;92747.00;;;23.63
69420;BMP280;71621;52.030;113.516;2023-07-24T13:30:29;92737.47;;;23.48
69420;BMP280;71621;52.030;113.516;2023-07-24T13:33:33;92750.75;;;23.56
69420;BMP280;71621;52.030;113.516;2023-07-24T13:36:36;92753.56;;;23.54
69420;BMP280;71621;52.030;113.516;2023-07-24T13:39:40;92750.75;;;23.56
69420;BMP280;71621;52.030;113.516;2023-07-24T13:42:44;92747.66;;;23.49
69420;BMP280;71621;52.030;113.516;2023-07-24T13:45:47;92736.81;;;23.33
69420;BMP280;71621;52.030;113.516;2023-07-24T13:48:51;92750.44;;;23.33
69420;BMP280;71621;52.030;113.516;2023-07-24T13:51:54;92749.13;;;23.32
69420;BMP280;71621;52.030;113.516;2023-07-24T13:54:58;92744.00;;;23.24
69420;BMP280;71621;52.030;113.516;2023-07-24T13:58:02;92745.41;;;23.23
69420;BMP280;71621;52.030;113.516;2023-07-24T14:01:05;92743.44;;;23.21
69420;BMP280;71621;52.030;113.516;2023-07-24T14:04:10;92746.41;;;23.15
69420;BMP280;71621;52.030;113.516;2023-07-24T14:07:15;92751.03;;;23.18
69420;BMP280;71621;52.030;113.516;2023-07-24T14:10:18;92752.19;;;23.24
69420;BMP280;71621;52.030;113.516;2023-07-24T14:13:22;92751.53;;;23.23
69420;BMP280;71621;52.030;113.516;2023-07-24T14:16:26;92754.34;;;23.21
69420;BMP280;71621;52.030;113.516;2023-07-24T14:19:30;92744.19;;;23.19
69420;BMP280;71621;52.030;113.516;2023-07-24T14:22:33;92741.28;;;23.24
69420;BMP280;71621;52.030;113.516;2023-07-24T14:25:37;92741.53;;;23.17
69420;BMP280;71621;52.030;113.516;2023-07-24T14:28:40;92731.81;;;23.06
69420;BMP280;71621;52.030;113.516;2023-07-24T14:31:44;92741.13;;;23.11
69420;BMP280;71621;52.030;113.516;2023-07-24T14:34:51;92747.25;;;23.11
69420;BMP280;71621;52.030;113.516;2023-07-24T14:37:56;92747.13;;;22.99
69420;BMP280;71621;52.030;113.516;2023-07-24T14:41:00;92751.41;;;22.94
69420;BMP280;71621;52.030;113.516;2023-07-24T14:44:03;92752.09;;;22.94
69420;BMP280;71621;52.030;113.516;2023-07-24T14:47:07;92744.19;;;22.88
69420;BMP280;71621;52.030;113.516;2023-07-24T14:50:11;92747.16;;;22.82
69420;BMP280;71621;52.030;113.516;2023-07-24T14:53:16;92749.47;;;22.75
69420;BMP280;71621;52.030;113.516;2023-07-24T14:56:19;92752.34;;;22.71
69420;BMP280;71621;52.030;113.516;2023-07-24T14:59:24;92758.06;;;22.65
69420;BMP280;71621;52.030;113.516;2023-07-24T15:02:28;92758.56;;;22.53
69420;BMP280;71621;52.030;113.516;2023-07-24T15:05:31;92759.13;;;22.39
69420;BMP280;71621;52.030;113.516;2023-07-24T15:08:35;92745.66;;;22.18
69420;BMP280;71621;52.030;113.516;2023-07-24T15:11:39;92747.59;;;22.03
69420;BMP280;71621;52.030;113.516;2023-07-24T15:14:43;92741.88;;;21.92
69420;BMP280;71621;52.030;113.516;2023-07-24T15:17:47;92747.00;;;22.01
69420;BMP280;71621;52.030;113.516;2023-07-24T15:20:51;92749.66;;;22.03
69420;BMP280;71621;52.030;113.516;2023-07-24T15:23:56;92753.94;;;21.97
69420;BMP280;71621;52.030;113.516;2023-07-24T15:27:00;92742.34;;;21.80
69420;BMP280;71621;52.030;113.516;2023-07-24T15:30:11;92755.59;;;21.72
69420;BMP280;71621;52.030;113.516;2023-07-24T15:33:15;92755.91;;;21.64
69420;BMP280;71621;52.030;113.516;2023-07-24T15:36:19;92762.38;;;21.54
69420;BMP280;71621;52.030;113.516;2023-07-24T15:39:22;92758.75;;;21.41
69420;BMP280;71621;52.030;113.516;2023-07-24T15:42:26;92757.78;;;21.30
69420;BMP280;71621;52.030;113.516;2023-07-24T15:45:30;92759.59;;;21.16
69420;BMP280;71621;52.030;113.516;2023-07-24T15:48:34;92755.00;;;21.13
69420;BMP280;71621;52.030;113.516;2023-07-24T15:51:37;92755.44;;;21.20
69420;BMP280;71621;52.030;113.516;2023-07-24T15:54:42;92747.44;;;21.15
69420;BMP280;71621;52.030;113.516;2023-07-24T15:57:46;92751.47;;;21.16
69420;BMP280;71621;52.030;113.516;2023-07-24T16:00:50;92752.88;;;21.15
69420;BMP280;71621;52.030;113.516;2023-07-24T16:03:53;92755.13;;;21.09
69420;BMP280;71621;52.030;113.516;2023-07-24T16:06:57;92757.41;;;21.02
69420;BMP280;71621;52.030;113.516;2023-07-24T16:10:01;92749.72;;;20.88
69420;BMP280;71621;52.030;113.516;2023-07-24T16:13:05;92755.44;;;20.80
69420;BMP280;71621;52.030;113.516;2023-07-24T16:16:08;92746.69;;;20.77
69420;BMP280;71621;52.030;113.516;2023-07-24T16:19:21;92750.47;;;20.87
69420;BMP280;71621;52.030;113.516;2023-07-24T16:22:25;92757.81;;;20.90
69420;BMP280;71621;52.030;113.516;2023-07-24T16:25:29;92752.09;;;20.98
69420;BMP280;71621;52.030;113.516;2023-07-24T16:28:32;92754.34;;;20.92
69420;BMP280;71621;52.030;113.516;2023-07-24T16:31:36;92759.06;;;20.93
69420;BMP280;71621;52.030;113.516;2023-07-24T16:34:40;92757.94;;;20.86
69420;BMP280;71621;52.030;113.516;2023-07-24T16:37:44;92756.16;;;20.78
69420;BMP280;71621;52.030;113.516;2023-07-24T16:40:50;92756.31;;;20.74
69420;BMP280;71621;52.030;113.516;2023-07-24T16:43:55;92760.56;;;20.69
69420;BMP280;71621;52.030;113.516;2023-07-24T16:47:03;92758.75;;;20.62
69420;BMP280;71621;52.030;113.516;2023-07-24T16:50:11;92758.94;;;20.56
69420;BMP280;71621;52.030;113.516;2023-07-24T16:53:15;92763.69;;;20.55
69420;BMP280;71621;52.030;113.516;2023-07-24T16:56:18;92756.38;;;20.52
69420;BMP280;71621;52.030;113.516;2023-07-24T16:59:22;92754.84;;;20.57
69420;BMP280;71621;52.030;113.516;2023-07-24T17:02:26;92756.88;;;20.56
69420;BMP280;71621;52.030;113.516;2023-07-24T17:05:29;92757.16;;;20.48
69420;BMP280;71621;52.030;113.516;2023-07-24T17:08:33;92757.19;;;20.46
69420;BMP280;71621;52.030;113.516;2023-07-24T17:11:37;92761.47;;;20.41
69420;BMP280;71621;52.030;113.516;2023-07-24T17:14:41;92756.88;;;20.35
69420;BMP280;71621;52.030;113.516;2023-07-24T17:17:44;92755.75;;;20.28